Terminal Aerodrome Forecast
Issued by NWS

Home | Current Version | Previous Version | Text Only | Print | Product List | Glossary On
Versions: 1 2 3 4 5 6 7 8 9 10 11 12 13 14 15 16 17 18 19 20 21
945
FTUS43 KLSX 181721
TAFUIN
TAF
KUIN 181721Z 1818/1918 14004KT P6SM SCT040 BKN250
     FM182000 18005KT P6SM VCTS BKN040CB
      TEMPO 1821/1824 VRB15G30KT 5SM -TSRA BKN030CB
     FM190300 VRB03KT P6SM BKN080
     FM190600 VRB03KT 4SM BR BKN080
     FM191200 VRB03KT 2SM BR BKN025
     FM191400 17005KT P6SM SCT070=

USA.gov is the U.S. government's official web portal to all federal, state and local government web resources and services.